createdAt,value
2019-01-20T00:00:11.253Z,12.43
2019-01-20T00:05:28.016Z,14.73
2019-01-20T00:10:42.531Z,13.13
2019-01-20T00:15:57.841Z,10.33
2019-01-20T00:21:12.662Z,11.90
2019-01-20T00:26:27.328Z,13.27
2019-01-20T00:31:42.330Z,12.30
2019-01-20T00:36:58.048Z,11.33
2019-01-20T00:42:12.473Z,10.30
2019-01-20T00:47:27.363Z,11.00
2019-01-20T00:52:41.655Z,11.87
2019-01-20T00:57:56.710Z,12.47
2019-01-20T01:03:11.324Z,12.13
2019-01-20T01:08:25.987Z,10.00
2019-01-20T01:13:40.573Z,12.20
2019-01-20T01:18:55.500Z,13.27
2019-01-20T01:24:10.559Z,11.70
2019-01-20T01:29:25.511Z,13.60
2019-01-20T01:34:40.425Z,10.83
2019-01-20T01:39:55.232Z,11.70
2019-01-20T01:45:12.888Z,13.27
2019-01-20T01:50:27.842Z,14.10
2019-01-20T01:55:42.824Z,13.83
2019-01-20T02:00:57.627Z,10.97
2019-01-20T02:06:12.538Z,14.17
2019-01-20T02:11:27.559Z,11.00
2019-01-20T02:16:42.224Z,12.53
2019-01-20T02:21:56.485Z,11.63
2019-01-20T02:27:11.293Z,11.93
2019-01-20T02:32:26.160Z,13.23
2019-01-20T02:37:40.972Z,13.23
2019-01-20T02:42:55.635Z,13.67
2019-01-20T02:48:10.458Z,12.53
2019-01-20T02:53:27.420Z,12.50
2019-01-20T02:58:41.642Z,12.80
2019-01-20T03:03:56.541Z,12.23
2019-01-20T03:09:11.404Z,11.53
2019-01-20T03:14:29.138Z,11.50
2019-01-20T03:19:44.078Z,10.27
2019-01-20T03:24:59.351Z,13.97
2019-01-20T03:30:16.599Z,11.20
2019-01-20T03:35:31.208Z,15.97
2019-01-20T03:40:45.560Z,10.97
2019-01-20T03:46:00.412Z,12.90
2019-01-20T03:51:14.905Z,13.93
2019-01-20T03:56:29.725Z,15.87
2019-01-20T04:01:44.584Z,14.03
2019-01-20T04:06:59.350Z,12.40
2019-01-20T04:12:20.566Z,13.37
2019-01-20T04:17:30.140Z,12.83
2019-01-20T04:22:44.740Z,11.80
2019-01-20T04:27:59.741Z,11.20
2019-01-20T04:33:14.431Z,12.80
2019-01-20T04:38:28.978Z,12.80
2019-01-20T04:43:43.776Z,15.27
2019-01-20T04:48:59.393Z,15.47
2019-01-20T04:54:14.487Z,14.20
2019-01-20T04:59:29.037Z,12.93
2019-01-20T05:04:47.164Z,12.20
2019-01-20T05:10:01.629Z,11.37
2019-01-20T05:15:18.265Z,12.73
2019-01-20T05:20:32.769Z,12.70
2019-01-20T05:25:47.662Z,15.43
2019-01-20T05:31:02.520Z,14.53
2019-01-20T05:36:17.079Z,13.03
2019-01-20T05:41:32.122Z,11.37
2019-01-20T05:46:46.826Z,13.60
2019-01-20T05:52:01.603Z,13.27
2019-01-20T06:02:31.197Z,11.43
2019-01-20T06:07:45.716Z,12.27
2019-01-20T06:13:00.523Z,15.33
2019-01-20T06:18:15.489Z,13.03
2019-01-20T06:23:30.137Z,13.77
2019-01-20T06:28:47.629Z,12.97
2019-01-20T06:34:02.604Z,11.87
2019-01-20T06:39:17.579Z,13.07
2019-01-20T06:44:35.034Z,13.33
2019-01-20T06:49:49.561Z,11.30
2019-01-20T06:55:04.131Z,11.23
2019-01-20T07:00:20.071Z,10.13
2019-01-20T07:05:34.616Z,14.07
2019-01-20T07:10:48.853Z,11.97
2019-01-20T07:16:03.790Z,11.07
2019-01-20T07:21:18.639Z,13.27
2019-01-20T07:26:32.848Z,8.93
2019-01-20T07:31:47.495Z,11.13
2019-01-20T07:37:02.193Z,15.97
2019-01-20T07:42:17.213Z,15.83
2019-01-20T07:47:32.419Z,14.10
2019-01-20T07:52:48.930Z,13.73
2019-01-20T07:58:03.806Z,15.37
2019-01-20T08:03:18.657Z,15.50
2019-01-20T08:08:33.795Z,13.97
2019-01-20T08:13:48.149Z,15.10
2019-01-20T08:19:02.971Z,15.50
2019-01-20T08:24:17.574Z,12.70
2019-01-20T08:29:32.027Z,13.63
2019-01-20T08:34:46.256Z,14.63
2019-01-20T08:40:01.037Z,12.90
2019-01-20T08:45:29.616Z,13.27
2019-01-20T08:50:45.346Z,12.70
2019-01-20T08:56:01.590Z,15.20
2019-01-20T09:01:16.250Z,12.93
2019-01-20T09:06:31.105Z,10.80
2019-01-20T09:11:45.594Z,13.93
2019-01-20T09:17:00.098Z,15.13
2019-01-20T09:22:14.896Z,14.67
2019-01-20T09:27:29.889Z,14.30
2019-01-20T09:32:44.525Z,17.27
2019-01-20T09:37:59.341Z,10.00
2019-01-20T09:43:13.720Z,12.93
2019-01-20T09:48:28.225Z,9.57
2019-01-20T09:53:43.877Z,11.30
2019-01-20T09:58:58.620Z,11.63
2019-01-20T10:04:13.691Z,11.07
2019-01-20T10:09:28.665Z,15.30
2019-01-20T10:14:43.348Z,13.57
2019-01-20T10:19:58.440Z,14.30
2019-01-20T10:25:15.178Z,14.50
2019-01-20T10:30:34.638Z,11.13
2019-01-20T10:36:08.106Z,13.20
2019-01-20T10:41:22.894Z,17.23
2019-01-20T10:46:37.970Z,14.17
2019-01-20T10:51:53.043Z,12.80
2019-01-20T10:57:07.920Z,17.47
2019-01-20T11:02:22.527Z,15.13
2019-01-20T11:07:37.601Z,17.33
2019-01-20T11:12:52.110Z,10.43
2019-01-20T11:18:06.748Z,12.33
2019-01-20T11:23:25.612Z,13.43
2019-01-20T11:28:40.211Z,14.43
2019-01-20T11:33:57.304Z,13.57
2019-01-20T11:39:11.758Z,14.67
2019-01-20T11:44:27.711Z,14.33
2019-01-20T11:49:42.503Z,14.50
2019-01-20T11:54:57.719Z,13.70
2019-01-20T12:00:16.545Z,16.83
2019-01-20T12:05:32.667Z,13.50
2019-01-20T12:10:48.045Z,15.90
2019-01-20T12:16:02.949Z,13.53
2019-01-20T12:21:17.563Z,15.30
2019-01-20T12:26:34.794Z,13.20
2019-01-20T12:31:55.822Z,15.13
2019-01-20T12:37:10.547Z,16.33
2019-01-20T12:42:25.756Z,15.33
2019-01-20T12:47:41.182Z,17.93
2019-01-20T12:52:58.671Z,14.30
2019-01-20T12:58:14.076Z,15.23
2019-01-20T13:03:29.094Z,15.93
2019-01-20T13:08:43.783Z,18.37
2019-01-20T13:13:58.859Z,14.20
2019-01-20T13:19:18.682Z,17.23
2019-01-20T13:24:33.479Z,14.57
2019-01-20T13:29:48.307Z,17.63
2019-01-20T13:35:07.705Z,16.70
2019-01-20T13:40:27.383Z,13.97
2019-01-20T13:45:41.916Z,14.73
2019-01-20T13:51:00.330Z,16.80
2019-01-20T13:56:15.284Z,12.70
2019-01-20T14:01:36.290Z,16.77
2019-01-20T14:06:54.585Z,19.53
2019-01-20T14:12:15.561Z,18.57
2019-01-20T14:17:38.501Z,19.17
2019-01-20T14:28:36.588Z,16.40
2019-01-20T14:33:51.658Z,15.77
2019-01-20T14:39:12.921Z,18.17
2019-01-20T14:44:27.445Z,18.10
2019-01-20T14:49:45.057Z,21.13
2019-01-20T14:55:07.491Z,18.57
2019-01-20T15:00:39.778Z,19.13
2019-01-20T15:06:02.083Z,19.13
2019-01-20T15:11:22.043Z,16.70
2019-01-20T15:16:39.772Z,19.43
2019-01-20T15:21:59.707Z,18.27
2019-01-20T15:27:17.954Z,17.50
2019-01-20T15:32:33.974Z,20.20
2019-01-20T15:37:50.570Z,20.50
2019-01-20T15:43:06.994Z,19.43
2019-01-20T15:48:23.859Z,21.53
2019-01-20T15:53:41.193Z,20.47
2019-01-20T15:58:57.260Z,18.33
2019-01-20T16:04:13.548Z,19.80
2019-01-20T16:09:31.910Z,18.73
2019-01-20T16:14:47.962Z,21.17
2019-01-20T16:20:07.535Z,18.57
2019-01-20T16:25:36.177Z,18.70
2019-01-20T16:30:50.827Z,20.23
2019-01-20T16:36:08.052Z,22.13
2019-01-20T16:41:25.675Z,20.50
2019-01-20T16:46:41.456Z,20.00
2019-01-20T16:51:57.546Z,19.77
2019-01-20T16:57:12.243Z,20.40
2019-01-20T17:02:26.947Z,17.17
2019-01-20T17:07:41.752Z,21.30
2019-01-20T17:12:56.921Z,17.70
2019-01-20T17:18:12.430Z,21.30
2019-01-20T17:23:27.294Z,19.00
2019-01-20T17:28:41.963Z,19.87
2019-01-20T17:33:56.968Z,20.77
2019-01-20T17:39:12.294Z,20.63
2019-01-20T17:44:27.330Z,23.27
2019-01-20T17:49:42.101Z,21.63
2019-01-20T17:54:56.708Z,19.50
2019-01-20T18:00:14.362Z,19.03
2019-01-20T18:05:29.724Z,18.83
2019-01-20T18:10:44.242Z,18.17
2019-01-20T18:15:59.176Z,21.00
2019-01-20T18:21:14.225Z,20.13
2019-01-20T18:26:28.708Z,20.10
2019-01-20T18:31:44.365Z,19.43
2019-01-20T18:36:59.109Z,21.07
2019-01-20T18:42:13.916Z,21.47
2019-01-20T18:47:28.784Z,18.27
2019-01-20T18:52:44.920Z,21.13
2019-01-20T19:03:08.553Z,19.27
2019-01-20T19:08:26.539Z,20.13
2019-01-20T19:13:41.752Z,22.87
2019-01-20T19:18:56.517Z,23.90
2019-01-20T19:24:10.715Z,20.17
2019-01-20T19:29:25.528Z,22.77
2019-01-20T19:34:40.493Z,22.03
2019-01-20T19:39:57.255Z,21.17
2019-01-20T19:45:32.789Z,22.17
2019-01-20T19:50:48.248Z,24.30
2019-01-20T19:56:11.902Z,26.43
2019-01-20T20:01:32.459Z,22.97
2019-01-20T20:06:48.171Z,22.53
2019-01-20T20:12:03.129Z,22.07
2019-01-20T20:17:17.485Z,21.70
2019-01-20T20:22:32.979Z,19.47
2019-01-20T20:27:47.938Z,18.40
2019-01-20T20:33:02.412Z,22.93
2019-01-20T20:38:17.705Z,20.43
2019-01-20T20:43:34.208Z,22.27
2019-01-20T20:48:49.148Z,26.67
2019-01-20T20:54:03.688Z,20.27
2019-01-20T20:59:18.667Z,22.00
2019-01-20T21:04:33.376Z,20.53
2019-01-20T21:09:48.774Z,20.50
2019-01-20T21:15:07.826Z,19.87
2019-01-20T21:20:22.437Z,21.77
2019-01-20T21:25:41.647Z,23.20
2019-01-20T21:30:56.834Z,21.40
2019-01-20T21:36:11.322Z,22.97
2019-01-20T21:41:26.703Z,22.57
2019-01-20T21:46:45.367Z,21.93
2019-01-20T21:52:02.067Z,18.60
2019-01-20T21:57:16.658Z,18.83
2019-01-20T22:02:31.384Z,18.43
2019-01-20T22:07:46.299Z,21.73
2019-01-20T22:13:00.883Z,22.43
2019-01-20T22:18:15.748Z,21.00
2019-01-20T22:23:30.950Z,22.43
2019-01-20T22:28:45.456Z,18.80
2019-01-20T22:34:49.904Z,22.23
2019-01-20T22:40:12.355Z,21.73
2019-01-20T22:45:28.182Z,16.73
2019-01-20T22:50:43.251Z,19.50
2019-01-20T22:55:57.291Z,21.30
2019-01-20T23:01:31.248Z,22.63
2019-01-20T23:06:46.032Z,20.13
2019-01-20T23:12:00.392Z,17.57
2019-01-20T23:17:15.353Z,20.20
2019-01-20T23:22:29.934Z,20.00
2019-01-20T23:27:44.953Z,19.23
2019-01-20T23:32:59.784Z,22.23
2019-01-20T23:38:14.451Z,20.20
2019-01-20T23:43:29.137Z,20.43
2019-01-20T23:48:44.104Z,19.63
2019-01-20T23:53:59.176Z,18.30
2019-01-20T23:59:13.881Z,15.80
